Time;durP1;ratioP1;P1;durP2;ratioP2;P2;SDS_P1;SDS_P2;PMS_P1;PMS_P2;Temp;Humidity;BMP_temperature;BMP_pressure;BME280_temperature;BME280_humidity;BME280_pressure;Samples;Min_cycle;Max_cycle;Signal;HPM_P1;HPM_P2
2021/08/15 00:00:54;;;;;;;;;;;17.30;99.90;;;;;;5087979;28;19917;-77
2021/08/15 00:03:19;;;;;;;;;;;17.30;99.90;;;;;;5080569;28;19912;-77
2021/08/15 00:05:45;;;;;;;;;;;17.20;99.90;;;;;;5086650;28;19965;-78
2021/08/15 00:08:11;;;;;;;;;;;17.20;99.90;;;;;;5089260;28;20018;-77
2021/08/15 00:10:38;;;;;;;;;;;17.20;99.90;;;;;;5097433;28;19923;-77
2021/08/15 00:13:04;;;;;;;;;;;17.10;99.90;;;;;;5082837;28;21018;-77
2021/08/15 00:15:30;;;;;;;;;;;17.10;99.90;;;;;;5094750;28;19916;-77
2021/08/15 00:17:56;;;;;;;;;;;17.10;99.90;;;;;;5109495;27;20299;-77
2021/08/15 00:20:21;;;;;;;;;;;17.20;99.90;;;;;;5094307;28;20258;-77
2021/08/15 00:22:47;;;;;;;;;;;17.20;99.90;;;;;;5081247;28;20285;-79
2021/08/15 00:25:14;;;;;;;;;;;17.20;99.90;;;;;;5082328;28;19919;-77
2021/08/15 00:27:40;;;;;;;;;;;17.20;99.90;;;;;;5085133;28;19916;-77
2021/08/15 00:30:06;;;;;;;;;;;17.10;99.90;;;;;;5087394;28;20234;-76
2021/08/15 00:32:32;;;;;;;;;;;17.20;99.90;;;;;;5091682;28;19928;-77
2021/08/15 00:34:58;;;;;;;;;;;17.20;99.90;;;;;;5090048;28;19919;-77
2021/08/15 00:37:23;;;;;;;;;;;17.20;99.90;;;;;;5086543;28;19920;-77
2021/08/15 00:39:49;;;;;;;;;;;17.30;99.90;;;;;;5081567;28;19916;-78
2021/08/15 00:42:14;;;;;;;;;;;17.30;99.90;;;;;;5076222;28;20299;-77
2021/08/15 00:44:40;;;;;;;;;;;17.30;99.90;;;;;;5094963;28;19912;-78
2021/08/15 00:47:07;;;;;;;;;;;17.20;99.90;;;;;;5094829;28;19916;-77
2021/08/15 00:49:33;;;;;;;;;;;17.30;99.90;;;;;;5088918;28;20269;-77
2021/08/15 00:51:58;;;;;;;;;;;17.30;99.90;;;;;;5092619;28;19912;-78
2021/08/15 00:54:24;;;;;;;;;;;17.30;99.90;;;;;;5083911;28;19920;-79
2021/08/15 00:56:50;;;;;;;;;;;17.30;99.90;;;;;;5086272;28;19919;-77
2021/08/15 00:59:16;;;;;;;;;;;17.30;99.90;;;;;;5083030;28;19917;-77
2021/08/15 01:01:42;;;;;;;;;;;17.30;99.90;;;;;;5089225;28;20015;-77
2021/08/15 01:04:08;;;;;;;;;;;17.30;99.90;;;;;;5087297;28;19912;-77
2021/08/15 01:06:34;;;;;;;;;;;17.30;99.90;;;;;;5083059;28;19908;-77
2021/08/15 01:09:03;;;;;;;;;;;17.30;99.90;;;;;;5081077;28;20325;-77
2021/08/15 01:11:30;;;;;;;;;;;17.30;99.90;;;;;;5089463;28;19924;-76
2021/08/15 01:13:55;;;;;;;;;;;17.30;99.90;;;;;;5085965;28;19963;-77
2021/08/15 01:16:21;;;;;;;;;;;17.30;99.90;;;;;;5078261;28;19959;-76
2021/08/15 01:18:47;;;;;;;;;;;17.20;99.90;;;;;;5092601;28;20211;-78
2021/08/15 01:21:15;;;;;;;;;;;17.30;99.90;;;;;;5106656;28;19920;-77
2021/08/15 01:23:43;;;;;;;;;;;17.20;99.90;;;;;;5079213;28;19926;-77
2021/08/15 01:26:09;;;;;;;;;;;17.20;99.90;;;;;;5096554;28;19915;-78
2021/08/15 01:28:35;;;;;;;;;;;17.20;99.90;;;;;;5090171;28;19916;-77
2021/08/15 01:31:01;;;;;;;;;;;17.20;99.90;;;;;;5093732;28;19912;-77
2021/08/15 01:33:31;;;;;;;;;;;17.30;99.90;;;;;;5082741;28;19924;-78
2021/08/15 01:35:57;;;;;;;;;;;17.30;99.90;;;;;;5080783;28;19923;-77
2021/08/15 01:38:23;;;;;;;;;;;17.30;99.90;;;;;;5087394;28;19920;-77
2021/08/15 01:40:49;;;;;;;;;;;17.30;99.90;;;;;;5081597;28;19913;-77
2021/08/15 01:43:15;;;;;;;;;;;17.30;99.90;;;;;;5088312;28;19924;-78
2021/08/15 01:45:41;;;;;;;;;;;17.30;99.90;;;;;;5080440;28;19965;-78
2021/08/15 01:48:06;;;;;;;;;;;17.30;99.90;;;;;;5082465;28;19974;-78
2021/08/15 01:50:32;;;;;;;;;;;17.30;99.90;;;;;;5082875;28;20003;-78
2021/08/15 01:52:57;;;;;;;;;;;17.30;99.90;;;;;;5088900;28;19927;-76
2021/08/15 01:55:23;;;;;;;;;;;17.30;99.90;;;;;;5093612;28;19956;-77
2021/08/15 01:57:49;;;;;;;;;;;17.30;99.90;;;;;;5076693;28;19970;-78
2021/08/15 02:00:14;;;;;;;;;;;17.30;99.90;;;;;;5083191;28;19912;-77
2021/08/15 02:02:44;;;;;;;;;;;17.20;99.90;;;;;;5092788;28;19944;-77
2021/08/15 02:05:10;;;;;;;;;;;17.30;99.90;;;;;;5087185;28;19912;-78
2021/08/15 02:07:35;;;;;;;;;;;17.40;99.90;;;;;;5077134;28;20222;-77
2021/08/15 02:10:01;;;;;;;;;;;17.40;99.90;;;;;;5081877;28;20134;-78
2021/08/15 02:12:26;;;;;;;;;;;17.40;99.90;;;;;;5085507;28;20299;-78
2021/08/15 02:14:52;;;;;;;;;;;17.30;99.90;;;;;;5092254;28;19916;-78
2021/08/15 02:17:17;;;;;;;;;;;17.20;99.90;;;;;;5085373;28;20276;-78
2021/08/15 02:19:43;;;;;;;;;;;17.20;99.90;;;;;;5100929;28;19916;-78
2021/08/15 02:22:08;;;;;;;;;;;17.20;99.90;;;;;;5110146;28;19907;-78
2021/08/15 02:24:34;;;;;;;;;;;17.10;99.90;;;;;;5095742;28;19997;-77
2021/08/15 02:26:59;;;;;;;;;;;17.10;99.90;;;;;;5082614;28;19920;-78
2021/08/15 02:29:25;;;;;;;;;;;17.10;99.90;;;;;;5094779;28;19930;-78
2021/08/15 02:31:51;;;;;;;;;;;17.10;99.90;;;;;;5095672;28;20239;-79
2021/08/15 02:34:16;;;;;;;;;;;17.10;99.90;;;;;;5101084;28;20195;-78
2021/08/15 02:36:42;;;;;;;;;;;17.10;99.90;;;;;;5098999;28;20031;-77
2021/08/15 02:39:07;;;;;;;;;;;17.10;99.90;;;;;;5086285;28;19912;-78
2021/08/15 02:41:33;;;;;;;;;;;17.00;99.90;;;;;;5092561;28;19924;-78
2021/08/15 02:43:58;;;;;;;;;;;17.10;99.90;;;;;;5090641;28;20326;-78
2021/08/15 02:46:24;;;;;;;;;;;17.20;99.90;;;;;;5082335;28;19916;-78
2021/08/15 02:48:50;;;;;;;;;;;17.20;99.90;;;;;;5095610;28;19916;-78
2021/08/15 02:51:15;;;;;;;;;;;17.20;99.90;;;;;;5092631;28;20011;-78
2021/08/15 02:53:41;;;;;;;;;;;17.20;99.90;;;;;;5101002;28;20204;-77
2021/08/15 02:56:06;;;;;;;;;;;17.20;99.90;;;;;;5089083;28;19955;-79
2021/08/15 02:58:32;;;;;;;;;;;17.10;99.90;;;;;;5087145;28;19920;-78
2021/08/15 03:00:57;;;;;;;;;;;17.10;99.90;;;;;;5089586;28;20317;-78
2021/08/15 03:03:23;;;;;;;;;;;17.10;99.90;;;;;;5087648;28;20262;-77
2021/08/15 03:05:48;;;;;;;;;;;17.10;99.90;;;;;;5078795;28;19922;-80
2021/08/15 03:08:14;;;;;;;;;;;17.10;99.90;;;;;;5081057;28;20311;-78
2021/08/15 03:10:39;;;;;;;;;;;17.00;99.90;;;;;;5086088;28;19930;-78
2021/08/15 03:13:06;;;;;;;;;;;17.00;99.90;;;;;;5095443;28;20265;-77
2021/08/15 03:15:32;;;;;;;;;;;17.00;99.90;;;;;;5083193;28;19924;-78
2021/08/15 03:17:58;;;;;;;;;;;17.00;99.90;;;;;;5097003;28;19908;-77
2021/08/15 03:20:23;;;;;;;;;;;17.00;99.90;;;;;;5087024;28;19994;-77
2021/08/15 03:22:49;;;;;;;;;;;17.00;99.90;;;;;;5096588;28;20360;-77
2021/08/15 03:25:15;;;;;;;;;;;16.90;99.90;;;;;;5094797;28;19919;-77
2021/08/15 03:27:40;;;;;;;;;;;16.90;99.90;;;;;;5096744;28;19931;-78
2021/08/15 03:30:06;;;;;;;;;;;17.00;99.90;;;;;;5119382;27;20054;-77
2021/08/15 03:32:31;;;;;;;;;;;17.00;99.90;;;;;;5079012;28;20369;-77
2021/08/15 03:34:57;;;;;;;;;;;17.00;99.90;;;;;;5093649;28;19935;-78
2021/08/15 03:37:23;;;;;;;;;;;16.90;99.90;;;;;;5088200;28;19909;-78
2021/08/15 03:39:48;;;;;;;;;;;16.90;99.90;;;;;;5090410;28;19912;-78
2021/08/15 03:42:14;;;;;;;;;;;16.90;99.90;;;;;;5089510;28;19912;-77
2021/08/15 03:44:39;;;;;;;;;;;16.80;99.90;;;;;;5095511;28;19923;-77
2021/08/15 03:47:05;;;;;;;;;;;16.80;99.90;;;;;;5096559;28;19912;-77
2021/08/15 03:49:30;;;;;;;;;;;16.80;99.90;;;;;;5083313;28;19916;-78
2021/08/15 03:51:56;;;;;;;;;;;16.90;99.90;;;;;;5088028;28;19916;-77
2021/08/15 03:54:22;;;;;;;;;;;16.90;99.90;;;;;;5088673;28;19920;-77
2021/08/15 03:56:48;;;;;;;;;;;16.90;99.90;;;;;;5086408;28;19920;-76
2021/08/15 03:59:14;;;;;;;;;;;16.90;99.90;;;;;;5086432;28;19918;-77
2021/08/15 04:01:40;;;;;;;;;;;16.90;99.90;;;;;;5093566;28;19943;-76
2021/08/15 04:04:05;;;;;;;;;;;17.00;99.90;;;;;;5085767;28;19971;-76
2021/08/15 04:06:33;;;;;;;;;;;17.00;99.90;;;;;;5085061;28;19917;-77
2021/08/15 04:09:01;;;;;;;;;;;16.90;99.90;;;;;;5088664;28;19917;-76
2021/08/15 04:11:26;;;;;;;;;;;16.90;99.90;;;;;;5088382;28;19912;-77
2021/08/15 04:13:52;;;;;;;;;;;16.90;99.90;;;;;;5093381;28;20303;-77
2021/08/15 04:16:18;;;;;;;;;;;16.90;99.90;;;;;;5096225;28;19916;-78
2021/08/15 04:18:43;;;;;;;;;;;16.90;99.90;;;;;;5090226;28;20263;-77
2021/08/15 04:21:09;;;;;;;;;;;16.80;99.90;;;;;;5084410;28;20313;-77
2021/08/15 04:23:34;;;;;;;;;;;16.80;99.90;;;;;;5087924;28;20338;-78
2021/08/15 04:26:00;;;;;;;;;;;16.70;99.90;;;;;;5084436;28;19912;-77
2021/08/15 04:28:26;;;;;;;;;;;16.70;99.90;;;;;;5099447;28;19920;-78
2021/08/15 04:30:51;;;;;;;;;;;16.70;99.90;;;;;;5096348;28;20038;-78
2021/08/15 04:33:20;;;;;;;;;;;16.70;99.90;;;;;;5094384;28;19932;-78
2021/08/15 04:35:46;;;;;;;;;;;16.80;99.90;;;;;;5088113;28;19916;-77
2021/08/15 04:38:11;;;;;;;;;;;16.90;99.90;;;;;;5105309;28;19912;-78
2021/08/15 04:40:37;;;;;;;;;;;16.90;99.90;;;;;;5093943;28;19916;-78
2021/08/15 04:43:02;;;;;;;;;;;16.90;99.90;;;;;;5093634;28;19908;-77
2021/08/15 04:45:28;;;;;;;;;;;16.90;99.90;;;;;;5080417;28;20207;-78
2021/08/15 04:47:53;;;;;;;;;;;16.90;99.90;;;;;;5096534;28;19919;-77
2021/08/15 04:50:19;;;;;;;;;;;17.00;99.90;;;;;;5107976;28;19912;-77
2021/08/15 04:52:45;;;;;;;;;;;16.90;99.90;;;;;;5103536;28;19912;-77
2021/08/15 04:55:12;;;;;;;;;;;16.90;99.90;;;;;;5098894;28;19918;-77
2021/08/15 04:57:37;;;;;;;;;;;16.80;99.90;;;;;;5107653;28;19912;-78
2021/08/15 05:00:03;;;;;;;;;;;16.80;99.90;;;;;;5097011;28;20278;-78
2021/08/15 05:02:29;;;;;;;;;;;16.80;99.90;;;;;;5107846;28;19918;-77
2021/08/15 05:04:54;;;;;;;;;;;16.90;99.90;;;;;;5096691;28;20010;-77
2021/08/15 05:07:20;;;;;;;;;;;16.90;99.90;;;;;;5094069;28;19920;-79
2021/08/15 05:09:46;;;;;;;;;;;16.90;99.90;;;;;;5110223;28;19915;-77
2021/08/15 05:12:11;;;;;;;;;;;16.90;99.90;;;;;;5104100;28;19911;-78
2021/08/15 05:14:37;;;;;;;;;;;16.90;99.90;;;;;;5098376;28;19924;-78
2021/08/15 05:17:02;;;;;;;;;;;16.90;99.90;;;;;;5103099;28;19916;-78
2021/08/15 05:19:30;;;;;;;;;;;16.90;99.90;;;;;;5106719;28;19934;-78
2021/08/15 05:21:56;;;;;;;;;;;17.00;99.90;;;;;;5108368;28;19908;-78
2021/08/15 05:24:21;;;;;;;;;;;17.00;99.90;;;;;;5103736;28;19920;-78
2021/08/15 05:26:47;;;;;;;;;;;17.00;99.90;;;;;;5107502;28;20011;-78
2021/08/15 05:29:12;;;;;;;;;;;17.00;99.90;;;;;;5104303;28;19915;-78
2021/08/15 05:31:38;;;;;;;;;;;17.00;99.90;;;;;;5095695;28;19928;-78
2021/08/15 05:34:04;;;;;;;;;;;17.00;99.90;;;;;;5084158;28;19916;-78
2021/08/15 05:36:29;;;;;;;;;;;17.00;99.90;;;;;;5083770;28;20460;-78
2021/08/15 05:38:55;;;;;;;;;;;17.00;99.90;;;;;;5083328;28;19918;-78
2021/08/15 05:41:20;;;;;;;;;;;17.10;99.90;;;;;;5081336;28;19934;-77
2021/08/15 05:43:46;;;;;;;;;;;17.10;99.90;;;;;;5086101;28;19959;-78
2021/08/15 05:46:11;;;;;;;;;;;17.00;99.90;;;;;;5082068;28;19970;-79
2021/08/15 05:48:37;;;;;;;;;;;17.00;99.90;;;;;;5082518;28;20274;-77
2021/08/15 05:51:05;;;;;;;;;;;17.10;99.90;;;;;;5082082;28;19952;-78
2021/08/15 05:53:30;;;;;;;;;;;17.10;99.90;;;;;;5084450;28;19912;-78
2021/08/15 05:55:56;;;;;;;;;;;17.10;99.90;;;;;;5085004;28;19919;-78
2021/08/15 05:58:21;;;;;;;;;;;17.10;99.90;;;;;;5083161;28;19920;-78
2021/08/15 06:00:48;;;;;;;;;;;17.20;99.90;;;;;;5081034;28;19916;-77
2021/08/15 06:03:13;;;;;;;;;;;17.20;99.90;;;;;;5085283;28;19915;-78
2021/08/15 06:05:39;;;;;;;;;;;17.20;99.90;;;;;;5089400;28;21087;-78
2021/08/15 06:08:04;;;;;;;;;;;17.30;99.90;;;;;;5092781;28;19923;-79
2021/08/15 06:10:30;;;;;;;;;;;17.30;99.90;;;;;;5088907;28;19924;-78
2021/08/15 06:12:55;;;;;;;;;;;17.40;99.90;;;;;;5087064;28;20325;-78
2021/08/15 06:15:21;;;;;;;;;;;17.40;99.90;;;;;;5087572;28;19916;-78
2021/08/15 06:17:47;;;;;;;;;;;17.50;99.90;;;;;;5087719;28;19941;-77
2021/08/15 06:20:12;;;;;;;;;;;17.50;99.90;;;;;;5088384;28;19994;-78
2021/08/15 06:22:39;;;;;;;;;;;17.50;99.90;;;;;;5111681;27;19970;-77
2021/08/15 06:25:05;;;;;;;;;;;17.50;99.90;;;;;;5087423;28;19916;-77
2021/08/15 06:27:31;;;;;;;;;;;17.60;99.90;;;;;;5088701;28;20015;-78
2021/08/15 06:29:57;;;;;;;;;;;17.70;99.90;;;;;;5089297;28;20054;-78
2021/08/15 06:32:22;;;;;;;;;;;17.70;99.90;;;;;;5086972;28;19921;-78
2021/08/15 06:34:48;;;;;;;;;;;17.80;99.90;;;;;;5088441;28;20268;-78
2021/08/15 06:37:13;;;;;;;;;;;17.80;99.90;;;;;;5086465;28;20234;-77
2021/08/15 06:39:39;;;;;;;;;;;17.90;99.90;;;;;;5085027;28;20303;-78
2021/08/15 06:42:05;;;;;;;;;;;18.00;99.90;;;;;;5087346;28;20066;-78
2021/08/15 06:44:30;;;;;;;;;;;18.10;99.90;;;;;;5086637;28;19946;-78
2021/08/15 06:46:56;;;;;;;;;;;18.10;99.90;;;;;;5084314;28;19913;-78
2021/08/15 06:49:21;;;;;;;;;;;18.20;99.90;;;;;;5087490;28;20424;-78
2021/08/15 06:51:48;;;;;;;;;;;18.20;99.90;;;;;;5085557;28;20261;-78
2021/08/15 06:54:13;;;;;;;;;;;18.30;99.90;;;;;;5089005;28;19916;-78
2021/08/15 06:56:41;;;;;;;;;;;18.40;99.90;;;;;;5086727;28;19919;-78
2021/08/15 06:59:07;;;;;;;;;;;18.50;99.90;;;;;;5088649;28;19960;-78
2021/08/15 07:01:32;;;;;;;;;;;18.60;99.90;;;;;;5086940;28;19958;-78
2021/08/15 07:03:58;;;;;;;;;;;18.60;99.90;;;;;;5091087;28;19943;-78
2021/08/15 07:06:24;;;;;;;;;;;18.60;99.90;;;;;;5086147;28;19955;-78
2021/08/15 07:08:49;;;;;;;;;;;18.70;99.90;;;;;;5087032;28;20342;-78
2021/08/15 07:11:15;;;;;;;;;;;18.70;99.90;;;;;;5087494;28;20003;-78
2021/08/15 07:13:40;;;;;;;;;;;18.90;99.90;;;;;;5086136;28;20238;-77
2021/08/15 07:16:06;;;;;;;;;;;19.00;99.90;;;;;;5089085;28;19920;-78
2021/08/15 07:18:31;;;;;;;;;;;19.10;99.90;;;;;;5087343;28;19971;-79
2021/08/15 07:21:00;;;;;;;;;;;19.30;99.90;;;;;;5083917;28;19917;-78
2021/08/15 07:23:25;;;;;;;;;;;19.40;99.90;;;;;;5084809;28;19919;-79
2021/08/15 07:25:51;;;;;;;;;;;19.40;99.90;;;;;;5087203;28;19916;-79
2021/08/15 07:28:17;;;;;;;;;;;19.50;99.90;;;;;;5087053;28;19920;-78
2021/08/15 07:30:42;;;;;;;;;;;19.50;99.90;;;;;;5086043;28;19951;-78
2021/08/15 07:33:08;;;;;;;;;;;19.60;99.90;;;;;;5087448;28;19930;-80
2021/08/15 07:35:35;;;;;;;;;;;19.60;99.90;;;;;;5084601;28;19960;-78
2021/08/15 07:38:01;;;;;;;;;;;19.70;99.90;;;;;;5084010;28;19913;-79
2021/08/15 07:40:27;;;;;;;;;;;19.80;99.90;;;;;;5087144;28;19922;-78
2021/08/15 07:42:54;;;;;;;;;;;20.10;99.90;;;;;;5084168;28;19917;-79
2021/08/15 07:45:28;;;;;;;;;;;20.20;99.90;;;;;;5085803;28;19923;-79
2021/08/15 07:47:54;;;;;;;;;;;20.20;99.90;;;;;;5099226;28;20370;-78
2021/08/15 07:50:20;;;;;;;;;;;20.30;99.90;;;;;;5102392;28;20007;-79
2021/08/15 07:52:46;;;;;;;;;;;20.40;99.90;;;;;;5109346;28;19961;-77
2021/08/15 07:55:11;;;;;;;;;;;20.40;99.90;;;;;;5086561;28;20011;-79
2021/08/15 07:57:37;;;;;;;;;;;20.60;99.90;;;;;;5086384;28;19916;-78
2021/08/15 08:00:03;;;;;;;;;;;20.60;99.90;;;;;;5086577;28;19919;-78
2021/08/15 08:02:29;;;;;;;;;;;20.50;99.90;;;;;;5102300;28;19916;-78
2021/08/15 08:04:55;;;;;;;;;;;20.70;99.90;;;;;;5090544;28;19938;-78
2021/08/15 08:07:22;;;;;;;;;;;20.80;99.90;;;;;;5088740;28;19908;-78
2021/08/15 08:09:51;;;;;;;;;;;21.10;99.90;;;;;;5094836;28;19920;-78
2021/08/15 08:12:17;;;;;;;;;;;21.40;99.90;;;;;;5082579;28;20307;-78
2021/08/15 08:14:43;;;;;;;;;;;21.70;99.90;;;;;;5095073;28;19916;-79
2021/08/15 08:17:08;;;;;;;;;;;21.80;99.90;;;;;;5088481;28;19919;-78
2021/08/15 08:19:34;;;;;;;;;;;21.90;99.90;;;;;;5091227;28;19909;-78
2021/08/15 08:21:59;;;;;;;;;;;22.00;99.90;;;;;;5081997;28;20339;-78
2021/08/15 08:24:25;;;;;;;;;;;22.10;99.90;;;;;;5090226;28;20210;-79
2021/08/15 08:26:51;;;;;;;;;;;22.20;99.90;;;;;;5096523;28;19930;-78
2021/08/15 08:29:16;;;;;;;;;;;22.40;99.90;;;;;;5105236;28;20223;-78
2021/08/15 08:31:42;;;;;;;;;;;22.50;99.90;;;;;;5103741;28;19923;-78
2021/08/15 08:34:07;;;;;;;;;;;22.70;99.90;;;;;;5096621;28;19927;-78
2021/08/15 08:36:33;;;;;;;;;;;22.70;99.90;;;;;;5082920;28;19912;-78
2021/08/15 08:38:58;;;;;;;;;;;22.80;99.90;;;;;;5093589;28;19908;-78
2021/08/15 08:41:24;;;;;;;;;;;22.80;99.90;;;;;;5080536;28;19913;-78
2021/08/15 08:43:50;;;;;;;;;;;23.10;99.90;;;;;;5079693;28;20050;-78
2021/08/15 08:46:17;;;;;;;;;;;23.20;99.90;;;;;;5088981;28;19908;-79
2021/08/15 08:48:43;;;;;;;;;;;23.40;99.90;;;;;;5086481;28;19924;-79
2021/08/15 08:51:08;;;;;;;;;;;23.40;99.90;;;;;;5086289;28;19912;-78
2021/08/15 08:53:35;;;;;;;;;;;23.50;99.90;;;;;;5088881;28;19936;-78
2021/08/15 08:56:01;;;;;;;;;;;23.60;99.90;;;;;;5098678;28;19919;-80
2021/08/15 08:58:26;;;;;;;;;;;23.70;99.90;;;;;;5096701;28;19911;-78
2021/08/15 09:00:52;;;;;;;;;;;23.80;99.90;;;;;;5087997;28;20023;-79
2021/08/15 09:03:17;;;;;;;;;;;24.00;99.90;;;;;;5082902;28;19919;-79
2021/08/15 09:05:50;;;;;;;;;;;24.10;99.90;;;;;;5087994;28;20317;-79
2021/08/15 09:08:26;;;;;;;;;;;24.30;99.90;;;;;;5081876;28;19943;-78
2021/08/15 09:10:52;;;;;;;;;;;24.40;99.90;;;;;;5081749;28;19951;-78
2021/08/15 09:13:24;;;;;;;;;;;24.40;99.90;;;;;;5082822;28;20377;-79
2021/08/15 09:15:56;;;;;;;;;;;24.60;99.90;;;;;;5089735;28;19912;-78
2021/08/15 09:18:32;;;;;;;;;;;24.50;99.90;;;;;;5085927;28;19920;-79
2021/08/15 09:20:58;;;;;;;;;;;24.60;99.90;;;;;;5085368;28;20313;-80
2021/08/15 09:23:25;;;;;;;;;;;24.50;99.90;;;;;;5085119;28;19916;-79
2021/08/15 09:26:09;;;;;;;;;;;24.50;99.90;;;;;;5090674;28;19985;-80
2021/08/15 09:28:34;;;;;;;;;;;24.70;99.90;;;;;;5085285;28;20327;-77
2021/08/15 09:34:24;;;;;;;;;;;24.70;99.90;;;;;;5108143;27;20320;-79
2021/08/15 09:36:49;;;;;;;;;;;24.70;99.90;;;;;;5087078;28;19977;-79
2021/08/15 09:39:15;;;;;;;;;;;24.70;99.90;;;;;;5088435;28;20303;-80
2021/08/15 09:41:48;;;;;;;;;;;24.80;99.90;;;;;;5087998;28;19919;-80
2021/08/15 09:44:30;;;;;;;;;;;24.70;99.90;;;;;;5084254;28;20390;-79
2021/08/15 09:47:01;;;;;;;;;;;24.80;99.90;;;;;;5087936;28;19999;-80
2021/08/15 09:49:40;;;;;;;;;;;25.00;99.90;;;;;;5087711;28;19916;-82
2021/08/15 09:52:07;;;;;;;;;;;24.90;99.90;;;;;;5085172;28;19920;-80
2021/08/15 09:54:33;;;;;;;;;;;25.00;99.90;;;;;;5083996;28;20348;-79
2021/08/15 09:56:59;;;;;;;;;;;25.20;99.90;;;;;;5087210;28;20054;-77
2021/08/15 09:59:31;;;;;;;;;;;25.30;99.90;;;;;;5089208;28;19917;-81
2021/08/15 10:04:23;;;;;;;;;;;25.30;99.90;;;;;;5082254;28;19916;-81
2021/08/15 10:06:51;;;;;;;;;;;25.30;99.90;;;;;;5082754;28;19959;-81
2021/08/15 10:09:16;;;;;;;;;;;25.30;99.90;;;;;;5077866;28;19913;-82
2021/08/15 10:11:42;;;;;;;;;;;25.30;99.90;;;;;;5087551;28;19916;-79
2021/08/15 10:14:08;;;;;;;;;;;25.30;99.90;;;;;;5084893;28;19916;-80
2021/08/15 10:16:39;;;;;;;;;;;25.10;99.90;;;;;;5093633;28;20639;-80
2021/08/15 10:19:09;;;;;;;;;;;25.00;99.90;;;;;;5085538;28;19923;-85
2021/08/15 10:21:43;;;;;;;;;;;24.90;99.90;;;;;;5081940;28;20007;-83
2021/08/15 10:24:10;;;;;;;;;;;24.80;99.90;;;;;;5093988;28;20223;-84
2021/08/15 10:26:35;;;;;;;;;;;25.00;99.90;;;;;;5082356;28;19917;-84
2021/08/15 10:29:01;;;;;;;;;;;25.20;99.90;;;;;;5072459;28;19919;-76
2021/08/15 10:31:46;;;;;;;;;;;25.30;99.90;;;;;;5100434;28;19922;-79
2021/08/15 10:34:11;;;;;;;;;;;25.50;99.90;;;;;;5088383;28;19927;-81
2021/08/15 10:36:37;;;;;;;;;;;25.50;99.90;;;;;;5097624;28;19909;-80
2021/08/15 10:39:22;;;;;;;;;;;25.50;99.90;;;;;;5090197;28;20210;-79
2021/08/15 10:41:49;;;;;;;;;;;25.50;99.90;;;;;;5092772;28;20399;-78
2021/08/15 10:44:15;;;;;;;;;;;25.60;99.90;;;;;;5096028;28;19977;-83
2021/08/15 10:46:59;;;;;;;;;;;25.50;99.90;;;;;;5080324;28;19913;-81
2021/08/15 10:49:44;;;;;;;;;;;25.40;99.90;;;;;;5095021;28;19917;-78
2021/08/15 10:52:25;;;;;;;;;;;25.50;99.90;;;;;;5080639;28;20348;-80
2021/08/15 10:55:00;;;;;;;;;;;25.50;99.90;;;;;;5069136;28;20250;-80
2021/08/15 10:57:52;;;;;;;;;;;25.50;99.90;;;;;;5080073;28;19924;-78
2021/08/15 11:00:30;;;;;;;;;;;25.50;99.90;;;;;;5067365;28;19927;-76
2021/08/15 11:02:56;;;;;;;;;;;25.60;99.90;;;;;;5089065;28;19920;-87
2021/08/15 11:05:37;;;;;;;;;;;25.60;99.90;;;;;;5075180;28;19924;-82
2021/08/15 11:08:04;;;;;;;;;;;25.70;99.90;;;;;;5068940;28;19982;-83
2021/08/15 11:10:48;;;;;;;;;;;25.80;99.90;;;;;;5077709;28;19913;-83
2021/08/15 11:13:18;;;;;;;;;;;25.70;99.90;;;;;;5072315;28;19916;-83
2021/08/15 11:15:44;;;;;;;;;;;25.70;99.90;;;;;;5075412;28;20311;-82
2021/08/15 11:18:12;;;;;;;;;;;25.80;99.90;;;;;;5077493;28;19919;-83
2021/08/15 11:20:42;;;;;;;;;;;25.80;99.90;;;;;;5069230;28;20294;-79
2021/08/15 11:23:08;;;;;;;;;;;25.70;99.90;;;;;;5068287;28;19939;-81
2021/08/15 11:25:34;;;;;;;;;;;25.70;99.90;;;;;;5080821;28;20261;-86
2021/08/15 11:27:59;;;;;;;;;;;25.70;99.90;;;;;;5059144;28;19909;-81
2021/08/15 11:30:25;;;;;;;;;;;25.80;99.90;;;;;;5077914;28;19920;-84
2021/08/15 11:32:54;;;;;;;;;;;25.90;99.90;;;;;;5086325;28;19921;-83
2021/08/15 11:35:20;;;;;;;;;;;25.90;99.90;;;;;;5078242;28;19963;-86
2021/08/15 11:37:50;;;;;;;;;;;25.90;99.90;;;;;;5076251;28;19912;-83
2021/08/15 11:40:23;;;;;;;;;;;25.90;99.90;;;;;;5060166;28;19920;-80
2021/08/15 11:42:57;;;;;;;;;;;25.90;99.90;;;;;;5077131;28;20379;-82
2021/08/15 11:45:26;;;;;;;;;;;26.00;99.90;;;;;;5079432;28;19939;-89
2021/08/15 11:47:52;;;;;;;;;;;26.10;99.90;;;;;;5075833;28;19944;-78
2021/08/15 11:50:19;;;;;;;;;;;26.10;99.90;;;;;;5065590;28;19955;-82
2021/08/15 11:52:46;;;;;;;;;;;26.20;99.90;;;;;;5062262;28;19932;-76
2021/08/15 11:55:17;;;;;;;;;;;26.30;99.90;;;;;;5069269;28;19943;-81
2021/08/15 11:57:45;;;;;;;;;;;26.30;99.90;;;;;;5088418;28;20221;-83
2021/08/15 12:00:11;;;;;;;;;;;26.40;99.90;;;;;;5078460;28;19915;-80
2021/08/15 12:02:36;;;;;;;;;;;26.40;99.90;;;;;;5080532;28;20007;-84
2021/08/15 12:05:02;;;;;;;;;;;26.40;99.90;;;;;;5085348;28;20003;-79
2021/08/15 12:07:28;;;;;;;;;;;26.30;99.90;;;;;;5073941;28;19923;-84
2021/08/15 12:10:12;;;;;;;;;;;26.10;99.90;;;;;;5088118;28;20334;-84
2021/08/15 12:12:39;;;;;;;;;;;26.10;99.90;;;;;;5055718;28;19920;-82
2021/08/15 12:15:07;;;;;;;;;;;26.20;99.90;;;;;;5068881;28;19913;-78
2021/08/15 12:17:49;;;;;;;;;;;26.20;99.90;;;;;;5062402;28;19912;-80
2021/08/15 12:20:19;;;;;;;;;;;26.30;99.90;;;;;;5073693;28;20008;-86
2021/08/15 12:22:45;;;;;;;;;;;26.20;99.90;;;;;;5065390;28;19908;-79
2021/08/15 12:25:17;;;;;;;;;;;26.20;99.90;;;;;;5078947;28;19962;-81
2021/08/15 12:27:43;;;;;;;;;;;26.20;99.90;;;;;;5067882;28;19919;-82
2021/08/15 12:30:09;;;;;;;;;;;26.10;99.90;;;;;;5071187;28;20301;-81
2021/08/15 12:32:34;;;;;;;;;;;26.10;99.90;;;;;;5088369;28;19930;-76
2021/08/15 12:35:01;;;;;;;;;;;26.10;99.90;;;;;;5064495;28;19917;-81
2021/08/15 12:37:36;;;;;;;;;;;26.10;99.90;;;;;;5070706;28;20363;-82
2021/08/15 12:40:02;;;;;;;;;;;26.00;99.90;;;;;;5056608;28;19913;-83
2021/08/15 12:42:27;;;;;;;;;;;25.90;99.90;;;;;;5059788;28;20338;-81
2021/08/15 12:44:54;;;;;;;;;;;25.90;99.90;;;;;;5084456;28;19951;-83
2021/08/15 12:47:24;;;;;;;;;;;25.90;99.90;;;;;;5080742;28;19978;-81
2021/08/15 12:49:52;;;;;;;;;;;25.80;99.90;;;;;;5073165;28;19931;-81
2021/08/15 12:52:23;;;;;;;;;;;25.80;99.90;;;;;;5061179;28;19923;-83
2021/08/15 12:55:07;;;;;;;;;;;25.70;99.90;;;;;;5071376;28;20013;-77
2021/08/15 12:57:33;;;;;;;;;;;25.70;99.90;;;;;;5080780;28;20271;-80
2021/08/15 12:59:59;;;;;;;;;;;25.70;99.90;;;;;;5071859;28;19917;-79
2021/08/15 13:02:25;;;;;;;;;;;25.80;99.90;;;;;;5063031;28;19924;-79
2021/08/15 13:04:55;;;;;;;;;;;25.90;99.90;;;;;;5071083;28;20231;-83
2021/08/15 13:07:21;;;;;;;;;;;25.90;99.90;;;;;;5068785;28;19912;-84
2021/08/15 13:09:46;;;;;;;;;;;25.90;99.90;;;;;;5071765;28;20432;-82
2021/08/15 13:12:12;;;;;;;;;;;25.90;99.90;;;;;;5068429;28;19924;-81
2021/08/15 13:14:38;;;;;;;;;;;25.90;99.90;;;;;;5062419;28;19923;-79
2021/08/15 13:17:04;;;;;;;;;;;25.90;99.90;;;;;;5063466;28;20386;-79
2021/08/15 13:19:30;;;;;;;;;;;25.90;99.90;;;;;;5070075;28;19938;-82
2021/08/15 13:21:55;;;;;;;;;;;25.90;99.90;;;;;;5069160;28;19920;-82
2021/08/15 13:24:21;;;;;;;;;;;25.80;99.90;;;;;;5070446;28;20006;-84
2021/08/15 13:26:47;;;;;;;;;;;25.70;99.90;;;;;;5066269;28;20220;-80
2021/08/15 13:29:12;;;;;;;;;;;25.60;99.90;;;;;;5084546;28;19909;-78
2021/08/15 13:31:38;;;;;;;;;;;25.60;99.90;;;;;;5064211;28;19923;-82
2021/08/15 13:34:03;;;;;;;;;;;25.40;99.90;;;;;;5073364;28;19921;-80
2021/08/15 13:36:30;;;;;;;;;;;25.40;99.90;;;;;;5071379;28;19917;-80
2021/08/15 13:38:55;;;;;;;;;;;25.30;99.90;;;;;;5073178;28;19920;-84
2021/08/15 13:41:21;;;;;;;;;;;25.30;99.90;;;;;;5073490;28;19926;-78
2021/08/15 13:43:46;;;;;;;;;;;25.30;99.90;;;;;;5086415;28;19916;-79
2021/08/15 13:46:12;;;;;;;;;;;25.20;99.90;;;;;;5072680;28;19913;-79
2021/08/15 13:48:37;;;;;;;;;;;25.10;99.90;;;;;;5066901;28;19959;-77
2021/08/15 13:51:04;;;;;;;;;;;25.10;99.90;;;;;;5072030;28;19986;-77
2021/08/15 13:53:29;;;;;;;;;;;25.20;99.90;;;;;;5069708;28;19969;-83
2021/08/15 13:55:55;;;;;;;;;;;25.20;99.90;;;;;;5073702;28;19920;-83
2021/08/15 13:58:21;;;;;;;;;;;25.10;99.90;;;;;;5069911;28;20321;-80
2021/08/15 14:00:50;;;;;;;;;;;25.00;99.90;;;;;;5072262;28;19917;-79
2021/08/15 14:03:16;;;;;;;;;;;25.00;99.90;;;;;;5069954;28;20337;-81
2021/08/15 14:05:42;;;;;;;;;;;25.00;99.90;;;;;;5069578;28;19916;-83
2021/08/15 14:08:08;;;;;;;;;;;25.00;99.90;;;;;;5070877;28;19916;-81
2021/08/15 14:10:33;;;;;;;;;;;25.00;99.90;;;;;;5073651;28;20030;-81
2021/08/15 14:12:59;;;;;;;;;;;25.00;99.90;;;;;;5070855;28;19925;-79
2021/08/15 14:15:24;;;;;;;;;;;25.00;99.90;;;;;;5070810;28;19912;-78
2021/08/15 14:17:50;;;;;;;;;;;25.10;99.90;;;;;;5071867;28;19912;-78
2021/08/15 14:20:16;;;;;;;;;;;25.10;99.90;;;;;;5075166;28;20696;-77